createdAt,value
2023-02-15T00:01:23.425Z,-1.08
2023-02-15T00:03:50.570Z,-1.19
2023-02-15T00:06:17.977Z,-1.15
2023-02-15T00:08:45.811Z,-1.18
2023-02-15T00:11:15.076Z,-1.15
2023-02-15T00:13:44.456Z,-1.11
2023-02-15T00:16:13.757Z,-1.18
2023-02-15T00:18:40.612Z,-1.19
2023-02-15T00:21:10.235Z,-1.19
2023-02-15T00:23:37.526Z,-1.15
2023-02-15T00:26:11.948Z,-1.18
2023-02-15T00:28:39.291Z,-1.20
2023-02-15T00:31:07.114Z,-1.24
2023-02-15T00:33:33.765Z,-1.32
2023-02-15T00:36:01.310Z,-1.34
2023-02-15T00:38:29.427Z,-1.36
2023-02-15T00:40:57.156Z,-1.32
2023-02-15T00:43:23.980Z,-1.33
2023-02-15T00:45:50.768Z,-1.28
2023-02-15T00:48:17.736Z,-1.34
2023-02-15T00:50:51.312Z,-1.30
2023-02-15T00:53:17.986Z,-1.27
2023-02-15T00:55:44.686Z,-1.25
2023-02-15T00:58:11.753Z,-1.16
2023-02-15T01:00:39.334Z,-1.12
2023-02-15T01:03:06.320Z,-1.08
2023-02-15T01:05:33.389Z,-1.13
2023-02-15T01:08:00.592Z,-1.10
2023-02-15T01:10:28.056Z,-1.02
2023-02-15T01:12:56.053Z,-0.97
2023-02-15T01:15:23.394Z,-0.95
2023-02-15T01:17:54.218Z,-0.96
2023-02-15T01:20:26.237Z,-0.97
2023-02-15T01:22:55.458Z,-0.96
2023-02-15T01:25:24.017Z,-0.97
2023-02-15T01:27:50.854Z,-0.95
2023-02-15T01:30:18.250Z,-0.98
2023-02-15T01:32:44.819Z,-1.12
2023-02-15T01:35:11.715Z,-1.15
2023-02-15T01:37:38.428Z,-1.13
2023-02-15T01:40:09.237Z,-1.10
2023-02-15T01:42:35.961Z,-1.01
2023-02-15T01:45:05.804Z,-1.06
2023-02-15T01:48:06.119Z,-1.04
2023-02-15T01:50:32.531Z,-1.06
2023-02-15T01:53:19.233Z,-1.07
2023-02-15T01:55:58.239Z,-1.07
2023-02-15T01:58:27.846Z,-1.02
2023-02-15T02:00:58.669Z,-1.04
2023-02-15T02:03:42.642Z,-1.01
2023-02-15T02:06:09.243Z,-1.01
2023-02-15T02:08:36.178Z,-1.05
2023-02-15T02:11:02.704Z,-1.07
2023-02-15T02:13:29.583Z,-1.09
2023-02-15T02:16:05.403Z,-1.08
2023-02-15T02:18:47.401Z,-1.08
2023-02-15T02:21:35.082Z,-1.07
2023-02-15T02:24:20.155Z,-1.05
2023-02-15T02:26:55.763Z,-1.05
2023-02-15T02:30:01.695Z,-1.04
2023-02-15T02:32:52.918Z,-1.14
2023-02-15T02:35:39.703Z,-1.17
2023-02-15T02:38:18.434Z,-1.17
2023-02-15T02:40:59.170Z,-1.12
2023-02-15T02:43:49.048Z,-1.11
2023-02-15T02:46:41.911Z,-1.08
2023-02-15T02:49:08.485Z,-1.12
2023-02-15T02:51:34.979Z,-1.20
2023-02-15T02:54:04.740Z,-1.13
2023-02-15T02:56:37.887Z,-1.18
2023-02-15T02:59:07.588Z,-1.18
2023-02-15T03:01:40.382Z,-1.22
2023-02-15T03:04:12.552Z,-1.26
2023-02-15T03:07:02.469Z,-1.30
2023-02-15T03:09:42.594Z,-1.36
2023-02-15T03:12:18.509Z,-1.34
2023-02-15T03:14:49.452Z,-1.32
2023-02-15T03:17:18.480Z,-1.23
2023-02-15T03:19:47.370Z,-1.16
2023-02-15T03:22:20.315Z,-1.18
2023-02-15T03:25:14.640Z,-1.21
2023-02-15T03:27:48.500Z,-1.23
2023-02-15T03:30:19.642Z,-1.22
2023-02-15T03:32:48.563Z,-1.23
2023-02-15T03:35:15.482Z,-1.25
2023-02-15T03:37:52.252Z,-1.33
2023-02-15T03:40:47.972Z,-1.51
2023-02-15T03:43:25.477Z,-1.55
2023-02-15T03:45:56.785Z,-1.58
2023-02-15T03:48:28.441Z,-1.52
2023-02-15T03:51:21.246Z,-1.49
2023-02-15T03:53:50.354Z,-1.50
2023-02-15T03:56:16.871Z,-1.48
2023-02-15T03:59:01.539Z,-1.43
2023-02-15T04:02:01.441Z,-1.39
2023-02-15T04:04:42.421Z,-1.39
2023-02-15T04:07:10.599Z,-1.40
2023-02-15T04:09:56.013Z,-1.39
2023-02-15T04:12:22.753Z,-1.31
2023-02-15T04:15:08.169Z,-1.30
2023-02-15T04:17:36.489Z,-1.31
2023-02-15T04:20:21.833Z,-1.31
2023-02-15T04:23:06.977Z,-1.30
2023-02-15T04:25:33.456Z,-1.32
2023-02-15T04:27:59.971Z,-1.34
2023-02-15T04:30:27.451Z,-1.39
2023-02-15T04:32:55.774Z,-1.42
2023-02-15T04:35:23.303Z,-1.42
2023-02-15T04:37:49.862Z,-1.51
2023-02-15T04:40:19.328Z,-1.60
2023-02-15T04:42:49.985Z,-1.70
2023-02-15T04:45:16.642Z,-1.65
2023-02-15T04:47:43.106Z,-1.62
2023-02-15T04:50:10.436Z,-1.59
2023-02-15T04:52:37.219Z,-1.59
2023-02-15T04:55:03.867Z,-1.56
2023-02-15T04:57:30.411Z,-1.54
2023-02-15T04:59:58.119Z,-1.47
2023-02-15T05:02:24.631Z,-1.46
2023-02-15T05:04:51.374Z,-1.46
2023-02-15T05:07:18.629Z,-1.43
2023-02-15T05:09:45.114Z,-1.46
2023-02-15T05:12:11.596Z,-1.52
2023-02-15T05:14:38.080Z,-1.49
2023-02-15T05:17:06.209Z,-1.48
2023-02-15T05:19:32.778Z,-1.55
2023-02-15T05:21:59.232Z,-1.60
2023-02-15T05:24:44.542Z,-1.55
2023-02-15T05:27:32.499Z,-1.70
2023-02-15T05:29:59.088Z,-1.73
2023-02-15T05:32:25.783Z,-1.77
2023-02-15T05:34:52.387Z,-1.71
2023-02-15T05:37:18.924Z,-1.69
2023-02-15T05:39:45.425Z,-1.67
2023-02-15T05:42:11.975Z,-1.71
2023-02-15T05:44:38.519Z,-1.69
2023-02-15T05:47:05.521Z,-1.69
2023-02-15T05:49:32.023Z,-1.67
2023-02-15T05:51:58.511Z,-1.75
2023-02-15T05:54:25.083Z,-1.73
2023-02-15T05:56:51.545Z,-1.76
2023-02-15T05:59:18.157Z,-1.77
2023-02-15T06:01:44.689Z,-1.72
2023-02-15T06:04:11.506Z,-1.65
2023-02-15T06:06:38.030Z,-1.73
2023-02-15T06:09:04.757Z,-1.74
2023-02-15T06:11:31.339Z,-1.73
2023-02-15T06:13:57.860Z,-1.73
2023-02-15T06:16:24.328Z,-1.78
2023-02-15T06:18:53.418Z,-1.74
2023-02-15T06:21:20.198Z,-1.72
2023-02-15T06:23:46.764Z,-1.68
2023-02-15T06:26:13.332Z,-1.62
2023-02-15T06:28:39.879Z,-1.61
2023-02-15T06:31:06.513Z,-1.66
2023-02-15T06:33:34.868Z,-1.72
2023-02-15T06:36:01.936Z,-1.75
2023-02-15T06:38:28.973Z,-1.73
2023-02-15T06:40:55.549Z,-1.62
2023-02-15T06:43:22.137Z,-1.57
2023-02-15T06:45:48.904Z,-1.55
2023-02-15T06:48:15.489Z,-1.49
2023-02-15T06:50:42.103Z,-1.56
2023-02-15T06:53:08.780Z,-1.54
2023-02-15T06:55:35.294Z,-1.49
2023-02-15T06:58:01.829Z,-1.48
2023-02-15T07:00:28.327Z,-1.42
2023-02-15T07:02:56.650Z,-1.45
2023-02-15T07:05:24.300Z,-1.48
2023-02-15T07:07:51.260Z,-1.49
2023-02-15T07:10:17.920Z,-1.45
2023-02-15T07:12:45.325Z,-1.40
2023-02-15T07:15:18.471Z,-1.42
2023-02-15T07:17:45.628Z,-1.56
2023-02-15T07:20:18.363Z,-1.68
2023-02-15T07:22:45.203Z,-1.79
2023-02-15T07:25:12.893Z,-1.69
2023-02-15T07:27:40.461Z,-1.68
2023-02-15T07:30:10.304Z,-1.61
2023-02-15T07:32:37.071Z,-1.65
2023-02-15T07:35:03.615Z,-1.59
2023-02-15T07:37:30.139Z,-1.64
2023-02-15T07:39:56.654Z,-1.60
2023-02-15T07:42:23.239Z,-1.62
2023-02-15T07:44:50.122Z,-1.66
2023-02-15T07:47:16.740Z,-1.63
2023-02-15T07:49:43.258Z,-1.67
2023-02-15T07:52:09.833Z,-1.58
2023-02-15T07:54:36.323Z,-1.54
2023-02-15T07:57:03.188Z,-1.53
2023-02-15T07:59:29.816Z,-1.45
2023-02-15T08:01:57.527Z,-1.46
2023-02-15T08:04:24.828Z,-1.40
2023-02-15T08:06:55.246Z,-1.38
2023-02-15T08:09:22.080Z,-1.31
2023-02-15T08:11:48.992Z,-1.25
2023-02-15T08:14:18.635Z,-1.42
2023-02-15T08:16:50.584Z,-1.39
2023-02-15T08:19:21.253Z,-1.36
2023-02-15T08:21:53.468Z,-1.31
2023-02-15T08:24:22.232Z,-1.25
2023-02-15T08:26:50.154Z,-1.27
2023-02-15T08:29:19.558Z,-1.41
2023-02-15T08:31:46.767Z,-1.42
2023-02-15T08:34:17.002Z,-1.48
2023-02-15T08:36:46.059Z,-1.57
2023-02-15T08:39:13.725Z,-1.84
2023-02-15T08:41:43.206Z,-1.59
2023-02-15T08:44:11.247Z,-1.46
2023-02-15T08:46:40.754Z,-1.60
2023-02-15T08:49:07.673Z,-1.47
2023-02-15T08:51:36.585Z,-1.40
2023-02-15T08:54:09.535Z,-1.46
2023-02-15T08:56:38.671Z,-1.29
2023-02-15T08:59:06.702Z,-1.21
2023-02-15T09:01:35.994Z,-1.04
2023-02-15T09:04:11.349Z,-0.93
2023-02-15T09:06:39.592Z,-0.79
2023-02-15T09:09:07.469Z,-0.89
2023-02-15T09:11:42.518Z,-0.78
2023-02-15T09:14:25.405Z,-0.77
2023-02-15T09:16:53.590Z,-0.90
2023-02-15T09:19:22.228Z,-0.89
2023-02-15T09:21:48.902Z,-0.75
2023-02-15T09:24:17.931Z,-0.80
2023-02-15T09:26:48.143Z,-0.48
2023-02-15T09:29:15.714Z,-0.26
2023-02-15T09:31:49.623Z,-0.32
2023-02-15T09:34:18.367Z,-0.20
2023-02-15T09:36:45.573Z,-0.17
2023-02-15T09:39:15.239Z,-0.15
2023-02-15T09:42:16.905Z,-0.13
2023-02-15T09:44:55.425Z,0.10
2023-02-15T09:47:30.891Z,-0.19
2023-02-15T09:50:25.749Z,-0.32
2023-02-15T09:53:11.004Z,-0.10
2023-02-15T09:56:03.317Z,0.02
2023-02-15T09:58:44.398Z,0.10
2023-02-15T10:01:36.112Z,0.10
2023-02-15T10:04:39.377Z,0.11
2023-02-15T10:07:24.248Z,0.18
2023-02-15T10:10:04.912Z,0.22
2023-02-15T10:12:47.449Z,0.33
2023-02-15T10:15:32.510Z,0.42
2023-02-15T10:18:21.545Z,0.25
2023-02-15T10:21:06.705Z,0.47
2023-02-15T10:23:46.427Z,0.62
2023-02-15T10:26:20.363Z,0.48
2023-02-15T10:28:56.311Z,0.43
2023-02-15T10:31:35.069Z,0.67
2023-02-15T10:34:20.004Z,0.79
2023-02-15T10:37:18.057Z,1.02
2023-02-15T10:40:08.964Z,1.07
2023-02-15T10:42:50.408Z,0.97
2023-02-15T10:45:45.481Z,0.96
2023-02-15T10:48:35.659Z,1.03
2023-02-15T10:51:03.937Z,1.14
2023-02-15T10:53:58.046Z,1.19
2023-02-15T10:56:39.640Z,1.03
2023-02-15T10:59:24.411Z,1.08
2023-02-15T11:01:56.907Z,1.18
2023-02-15T11:04:40.796Z,1.23
2023-02-15T11:07:16.362Z,1.13
2023-02-15T11:09:51.726Z,1.02
2023-02-15T11:12:23.404Z,1.13
2023-02-15T11:14:54.164Z,1.23
2023-02-15T11:17:32.190Z,1.54
2023-02-15T11:20:10.913Z,1.60
2023-02-15T11:22:37.371Z,1.63
2023-02-15T11:25:25.172Z,1.70
2023-02-15T11:27:53.982Z,1.74
2023-02-15T11:30:23.425Z,1.75
2023-02-15T11:32:57.408Z,1.72
2023-02-15T11:35:30.586Z,1.79
2023-02-15T11:38:21.834Z,1.81
2023-02-15T11:40:50.672Z,1.73
2023-02-15T11:43:33.132Z,1.77
2023-02-15T11:45:59.751Z,1.83
2023-02-15T11:48:26.491Z,1.88
2023-02-15T11:50:53.042Z,1.90
2023-02-15T11:53:25.698Z,1.85
2023-02-15T11:55:52.910Z,1.86
2023-02-15T11:58:41.486Z,1.66
2023-02-15T12:01:28.374Z,1.80
2023-02-15T12:04:08.173Z,1.65
2023-02-15T12:06:42.183Z,1.55
2023-02-15T12:09:23.729Z,1.56
2023-02-15T12:11:50.445Z,1.58
2023-02-15T12:14:16.937Z,1.60
2023-02-15T12:16:49.654Z,1.69
2023-02-15T12:19:33.873Z,1.78
2023-02-15T12:22:03.191Z,1.87
2023-02-15T12:24:34.116Z,1.90
2023-02-15T12:27:03.630Z,1.97
2023-02-15T12:29:36.793Z,2.04
2023-02-15T12:32:04.616Z,2.02
2023-02-15T12:34:43.726Z,2.01
2023-02-15T12:37:26.470Z,1.91
2023-02-15T12:39:58.813Z,1.89
2023-02-15T12:42:26.887Z,1.86
2023-02-15T12:44:57.340Z,1.81
2023-02-15T12:47:29.007Z,1.75
2023-02-15T12:50:12.616Z,1.75
2023-02-15T12:52:40.160Z,1.71
2023-02-15T12:55:30.654Z,1.68
2023-02-15T12:58:19.343Z,1.63
2023-02-15T13:00:46.922Z,1.54
2023-02-15T13:03:22.603Z,1.57
2023-02-15T13:05:54.589Z,1.60
2023-02-15T13:08:28.104Z,1.61
2023-02-15T13:11:03.372Z,1.62
2023-02-15T13:13:35.308Z,1.64
2023-02-15T13:16:16.014Z,1.71
2023-02-15T13:18:47.707Z,1.77
2023-02-15T13:21:21.705Z,1.83
2023-02-15T13:24:17.128Z,1.74
2023-02-15T13:26:46.491Z,1.69
2023-02-15T13:29:25.204Z,1.71
2023-02-15T13:31:54.029Z,1.67
2023-02-15T13:34:36.050Z,1.76
2023-02-15T13:37:16.132Z,1.81
2023-02-15T13:39:46.656Z,1.82
2023-02-15T13:42:22.162Z,1.84
2023-02-15T13:45:23.256Z,1.89
2023-02-15T13:48:36.912Z,1.90
2023-02-15T13:51:35.840Z,1.72
2023-02-15T13:54:24.667Z,1.65
2023-02-15T13:57:02.036Z,1.59
2023-02-15T14:00:10.552Z,1.64
2023-02-15T14:02:42.894Z,1.70
2023-02-15T14:05:31.846Z,1.74
2023-02-15T14:08:36.495Z,1.71
2023-02-15T14:11:21.364Z,1.72
2023-02-15T14:14:12.680Z,1.79
2023-02-15T14:17:13.152Z,1.71
2023-02-15T14:19:55.270Z,1.61
2023-02-15T14:22:39.903Z,1.53
2023-02-15T14:25:15.833Z,1.43
2023-02-15T14:27:53.333Z,1.31
2023-02-15T14:30:24.561Z,1.38
2023-02-15T14:32:57.568Z,1.42
2023-02-15T14:35:30.303Z,1.40
2023-02-15T14:38:15.573Z,1.44
2023-02-15T14:41:04.387Z,1.40
2023-02-15T14:43:53.318Z,1.30
2023-02-15T14:46:32.135Z,1.15
2023-02-15T14:49:22.103Z,1.07
2023-02-15T14:51:48.601Z,1.09
2023-02-15T14:54:24.044Z,1.07
2023-02-15T14:57:02.446Z,1.05
2023-02-15T14:59:47.666Z,0.99
2023-02-15T15:02:25.695Z,0.93
2023-02-15T15:05:08.982Z,0.94
2023-02-15T15:07:45.090Z,0.87
2023-02-15T15:10:17.848Z,0.92
2023-02-15T15:12:47.018Z,0.94
2023-02-15T15:15:47.346Z,0.93
2023-02-15T15:18:46.398Z,0.90
2023-02-15T15:21:47.808Z,0.90
2023-02-15T15:24:39.348Z,0.81
2023-02-15T15:27:42.769Z,0.76
2023-02-15T15:30:15.324Z,0.73
2023-02-15T15:32:49.089Z,0.79
2023-02-15T15:35:37.526Z,0.69
2023-02-15T15:38:22.528Z,0.59
2023-02-15T15:41:22.688Z,0.53
2023-02-15T15:43:49.013Z,0.49
2023-02-15T15:46:53.903Z,0.43
2023-02-15T15:49:24.211Z,0.35
2023-02-15T15:51:51.525Z,0.28
2023-02-15T15:54:23.075Z,0.22
2023-02-15T15:56:57.339Z,0.16
2023-02-15T15:59:27.423Z,0.16
2023-02-15T16:01:53.943Z,0.18
2023-02-15T16:04:32.782Z,0.13
2023-02-15T16:07:16.858Z,0.07
2023-02-15T16:10:05.639Z,-0.02
2023-02-15T16:12:35.825Z,-0.07
2023-02-15T16:15:15.615Z,-0.15
2023-02-15T16:17:45.947Z,-0.21
2023-02-15T16:20:19.780Z,-0.17
2023-02-15T16:22:54.599Z,-0.18
2023-02-15T16:25:37.951Z,-0.21
2023-02-15T16:28:13.213Z,-0.20
2023-02-15T16:30:41.286Z,-0.29
2023-02-15T16:33:07.740Z,-0.32
2023-02-15T16:35:35.899Z,-0.36
2023-02-15T16:38:03.707Z,-0.36
2023-02-15T16:40:43.584Z,-0.39
2023-02-15T16:43:17.245Z,-0.42
2023-02-15T16:45:44.378Z,-0.43
2023-02-15T16:48:24.560Z,-0.47
2023-02-15T16:50:58.742Z,-0.49
2023-02-15T16:53:29.646Z,-0.52
2023-02-15T16:55:59.326Z,-0.57
2023-02-15T16:58:45.097Z,-0.58
2023-02-15T17:01:16.704Z,-0.54
2023-02-15T17:03:43.515Z,-0.57
2023-02-15T17:06:27.440Z,-0.61
2023-02-15T17:09:04.664Z,-0.67
2023-02-15T17:11:37.738Z,-0.63
2023-02-15T17:14:07.740Z,-0.62
2023-02-15T17:16:41.631Z,-0.55
2023-02-15T17:19:27.673Z,-0.62
2023-02-15T17:21:57.693Z,-0.75
2023-02-15T17:24:44.368Z,-0.75
2023-02-15T17:27:32.757Z,-0.78
2023-02-15T17:30:10.092Z,-0.83
2023-02-15T17:32:37.842Z,-0.93
2023-02-15T17:35:05.036Z,-0.96
2023-02-15T17:37:33.345Z,-0.91
2023-02-15T17:40:01.709Z,-0.88
2023-02-15T17:42:28.513Z,-0.84
2023-02-15T17:44:55.040Z,-0.85
2023-02-15T17:47:25.603Z,-0.90
2023-02-15T17:49:53.491Z,-0.90
2023-02-15T17:52:20.165Z,-0.92
2023-02-15T17:55:05.335Z,-0.95
2023-02-15T17:57:31.826Z,-0.97
2023-02-15T18:00:18.938Z,-1.01
2023-02-15T18:03:05.325Z,-1.01
2023-02-15T18:05:50.949Z,-0.91
2023-02-15T18:08:38.037Z,-0.86
2023-02-15T18:11:23.377Z,-0.87
2023-02-15T18:13:49.901Z,-0.86
2023-02-15T18:16:23.920Z,-0.83
2023-02-15T18:18:50.536Z,-0.79
2023-02-15T18:21:17.067Z,-0.82
2023-02-15T18:23:43.568Z,-0.88
2023-02-15T18:26:17.494Z,-0.89
2023-02-15T18:28:44.060Z,-0.89
2023-02-15T18:31:11.736Z,-0.91
2023-02-15T18:33:50.577Z,-0.89
2023-02-15T18:36:28.249Z,-0.90
2023-02-15T18:38:55.850Z,-0.92
2023-02-15T18:41:23.044Z,-0.93
2023-02-15T18:43:50.059Z,-0.90
2023-02-15T18:46:17.767Z,-0.92
2023-02-15T18:48:46.332Z,-0.95
2023-02-15T18:51:20.446Z,-0.97
2023-02-15T18:53:53.051Z,-1.01
2023-02-15T18:56:22.460Z,-0.98
2023-02-15T18:58:49.355Z,-1.01
2023-02-15T19:01:18.695Z,-1.05
2023-02-15T19:03:50.025Z,-0.99
2023-02-15T19:06:19.828Z,-0.95
2023-02-15T19:08:49.185Z,-0.94
2023-02-15T19:11:25.673Z,-1.01
2023-02-15T19:13:53.435Z,-1.03
2023-02-15T19:16:32.802Z,-1.09
2023-02-15T19:19:00.311Z,-1.09
2023-02-15T19:21:32.008Z,-1.05
2023-02-15T19:24:03.380Z,-1.04
2023-02-15T19:26:44.379Z,-1.08
2023-02-15T19:29:14.546Z,-1.10
2023-02-15T19:31:41.574Z,-1.11
2023-02-15T19:34:16.365Z,-1.16
2023-02-15T19:36:45.382Z,-1.19
2023-02-15T19:39:24.428Z,-1.25
2023-02-15T19:41:51.683Z,-1.26
2023-02-15T19:44:18.376Z,-1.23
2023-02-15T19:46:45.688Z,-1.21
2023-02-15T19:49:12.423Z,-1.24
2023-02-15T19:51:39.955Z,-1.22
2023-02-15T19:54:31.552Z,-1.30
2023-02-15T19:56:58.530Z,-1.37
2023-02-15T19:59:27.094Z,-1.48
2023-02-15T20:01:54.134Z,-1.53
2023-02-15T20:04:20.696Z,-1.51
2023-02-15T20:06:49.486Z,-1.48
2023-02-15T20:09:40.816Z,-1.58
2023-02-15T20:12:25.594Z,-1.57
2023-02-15T20:14:52.916Z,-1.67
2023-02-15T20:17:20.014Z,-1.76
2023-02-15T20:19:46.489Z,-1.78
2023-02-15T20:22:25.242Z,-1.81
2023-02-15T20:24:55.591Z,-1.84
2023-02-15T20:27:22.561Z,-1.82
2023-02-15T20:29:50.557Z,-1.77
2023-02-15T20:32:17.273Z,-1.74
2023-02-15T20:34:43.880Z,-1.74
2023-02-15T20:37:22.483Z,-1.76
2023-02-15T20:39:50.185Z,-1.84
2023-02-15T20:42:17.752Z,-1.85
2023-02-15T20:44:44.304Z,-1.94
2023-02-15T20:47:10.798Z,-1.94
2023-02-15T20:49:38.620Z,-1.86
2023-02-15T20:52:18.320Z,-1.78
2023-02-15T20:54:44.836Z,-1.72
2023-02-15T20:57:14.721Z,-1.78
2023-02-15T20:59:41.698Z,-1.88
2023-02-15T21:02:15.955Z,-1.91
2023-02-15T21:04:42.447Z,-1.89
2023-02-15T21:07:20.233Z,-1.80
2023-02-15T21:09:46.875Z,-1.73
2023-02-15T21:12:18.373Z,-1.74
2023-02-15T21:14:45.520Z,-1.70
2023-02-15T21:17:13.829Z,-1.73
2023-02-15T21:19:41.466Z,-1.77
2023-02-15T21:22:12.987Z,-1.82
2023-02-15T21:24:44.206Z,-2.01
2023-02-15T21:27:13.094Z,-2.06
2023-02-15T21:29:39.610Z,-2.08
2023-02-15T21:32:06.093Z,-2.10
2023-02-15T21:34:32.717Z,-2.06
2023-02-15T21:36:59.249Z,-2.06
2023-02-15T21:39:36.213Z,-2.03
2023-02-15T21:42:25.247Z,-2.02
2023-02-15T21:45:09.986Z,-2.06
2023-02-15T21:47:51.581Z,-2.09
2023-02-15T21:50:39.275Z,-2.22
2023-02-15T21:53:07.506Z,-2.26
2023-02-15T21:55:34.027Z,-2.38
2023-02-15T21:58:01.377Z,-2.42
2023-02-15T22:00:28.788Z,-2.43
2023-02-15T22:02:58.272Z,-2.42
2023-02-15T22:05:28.346Z,-2.36
2023-02-15T22:07:54.772Z,-2.25
2023-02-15T22:10:22.844Z,-2.14
2023-02-15T22:12:50.707Z,-2.12
2023-02-15T22:15:20.073Z,-2.09
2023-02-15T22:17:46.871Z,-2.06
2023-02-15T22:20:15.109Z,-2.09
2023-02-15T22:22:41.657Z,-2.12
2023-02-15T22:25:08.293Z,-2.18
2023-02-15T22:27:39.371Z,-2.19
2023-02-15T22:30:20.060Z,-2.18
2023-02-15T22:32:46.846Z,-2.19
2023-02-15T22:35:19.226Z,-2.15
2023-02-15T22:37:45.706Z,-2.15
2023-02-15T22:40:17.405Z,-2.16
2023-02-15T22:42:50.557Z,-2.13
2023-02-15T22:45:20.688Z,-2.07
2023-02-15T22:47:49.136Z,-2.00
2023-02-15T22:50:21.978Z,-1.91
2023-02-15T22:52:49.367Z,-1.87
2023-02-15T22:55:21.727Z,-1.89
2023-02-15T22:57:51.410Z,-1.91
2023-02-15T23:00:20.839Z,-2.07
2023-02-15T23:02:47.392Z,-2.14
2023-02-15T23:05:21.504Z,-2.16
2023-02-15T23:07:49.332Z,-2.09
2023-02-15T23:10:21.320Z,-1.98
2023-02-15T23:13:14.853Z,-1.90
2023-02-15T23:15:43.209Z,-1.85
2023-02-15T23:18:18.147Z,-1.85
2023-02-15T23:21:01.059Z,-1.81
2023-02-15T23:23:31.862Z,-1.75
2023-02-15T23:25:59.076Z,-1.77
2023-02-15T23:28:33.683Z,-1.80
2023-02-15T23:31:00.335Z,-1.87
2023-02-15T23:33:31.298Z,-1.90
2023-02-15T23:35:58.521Z,-1.99
2023-02-15T23:38:30.450Z,-2.13
2023-02-15T23:41:21.086Z,-2.18
2023-02-15T23:43:58.359Z,-2.12
2023-02-15T23:46:28.455Z,-2.07
2023-02-15T23:48:55.445Z,-2.13
2023-02-15T23:51:27.419Z,-2.23
2023-02-15T23:53:53.912Z,-2.32
2023-02-15T23:56:20.389Z,-2.28
2023-02-15T23:58:47.952Z,-2.18
